sensor_id;sensor_type;location;lat;lon;timestamp;P1;durP1;ratioP1;P2;durP2;ratioP2
56005;SDS011;41888;44.696;10.522;2024-01-30T00:02:12;47.72;;;23.63;;
56005;SDS011;41888;44.696;10.522;2024-01-30T00:04:38;46.40;;;21.80;;
56005;SDS011;41888;44.696;10.522;2024-01-30T00:07:05;50.83;;;23.48;;
56005;SDS011;41888;44.696;10.522;2024-01-30T00:09:31;40.05;;;20.30;;
56005;SDS011;41888;44.696;10.522;2024-01-30T00:11:57;40.33;;;17.67;;
56005;SDS011;41888;44.696;10.522;2024-01-30T00:14:23;49.13;;;22.80;;
56005;SDS011;41888;44.696;10.522;2024-01-30T00:16:50;40.78;;;20.08;;
56005;SDS011;41888;44.696;10.522;2024-01-30T00:19:16;43.72;;;19.85;;
56005;SDS011;41888;44.696;10.522;2024-01-30T00:21:43;40.30;;;18.42;;
56005;SDS011;41888;44.696;10.522;2024-01-30T00:24:09;39.38;;;19.50;;
56005;SDS011;41888;44.696;10.522;2024-01-30T00:26:35;44.75;;;21.17;;
56005;SDS011;41888;44.696;10.522;2024-01-30T00:29:01;40.38;;;18.88;;
56005;SDS011;41888;44.696;10.522;2024-01-30T00:31:28;50.95;;;23.25;;
56005;SDS011;41888;44.696;10.522;2024-01-30T00:33:54;51.13;;;23.27;;
56005;SDS011;41888;44.696;10.522;2024-01-30T00:36:21;54.05;;;23.35;;
56005;SDS011;41888;44.696;10.522;2024-01-30T00:38:47;47.75;;;22.83;;
56005;SDS011;41888;44.696;10.522;2024-01-30T00:41:13;48.55;;;24.60;;
56005;SDS011;41888;44.696;10.522;2024-01-30T00:43:42;55.05;;;26.83;;
56005;SDS011;41888;44.696;10.522;2024-01-30T00:46:08;57.08;;;27.20;;
56005;SDS011;41888;44.696;10.522;2024-01-30T00:48:34;64.10;;;30.13;;
56005;SDS011;41888;44.696;10.522;2024-01-30T00:51:00;62.88;;;25.85;;
56005;SDS011;41888;44.696;10.522;2024-01-30T00:53:27;57.83;;;27.65;;
56005;SDS011;41888;44.696;10.522;2024-01-30T00:55:53;55.72;;;24.85;;
56005;SDS011;41888;44.696;10.522;2024-01-30T00:58:19;44.33;;;20.58;;
56005;SDS011;41888;44.696;10.522;2024-01-30T01:00:45;44.20;;;21.13;;
56005;SDS011;41888;44.696;10.522;2024-01-30T01:03:11;50.88;;;20.88;;
56005;SDS011;41888;44.696;10.522;2024-01-30T01:05:39;46.00;;;21.00;;
56005;SDS011;41888;44.696;10.522;2024-01-30T01:08:05;42.95;;;20.23;;
56005;SDS011;41888;44.696;10.522;2024-01-30T01:10:31;40.92;;;17.75;;
56005;SDS011;41888;44.696;10.522;2024-01-30T01:12:57;41.67;;;19.77;;
56005;SDS011;41888;44.696;10.522;2024-01-30T01:15:23;41.42;;;20.05;;
56005;SDS011;41888;44.696;10.522;2024-01-30T01:17:50;45.20;;;21.52;;
56005;SDS011;41888;44.696;10.522;2024-01-30T01:20:16;44.15;;;20.95;;
56005;SDS011;41888;44.696;10.522;2024-01-30T01:22:42;44.20;;;21.15;;
56005;SDS011;41888;44.696;10.522;2024-01-30T01:25:08;39.03;;;20.38;;
56005;SDS011;41888;44.696;10.522;2024-01-30T01:27:35;42.83;;;21.52;;
56005;SDS011;41888;44.696;10.522;2024-01-30T01:30:06;37.35;;;19.13;;
56005;SDS011;41888;44.696;10.522;2024-01-30T01:32:34;45.05;;;20.70;;
56005;SDS011;41888;44.696;10.522;2024-01-30T01:35:01;41.20;;;19.08;;
56005;SDS011;41888;44.696;10.522;2024-01-30T01:37:30;51.17;;;21.65;;
56005;SDS011;41888;44.696;10.522;2024-01-30T01:39:56;37.30;;;18.65;;
56005;SDS011;41888;44.696;10.522;2024-01-30T01:42:22;46.80;;;19.90;;
56005;SDS011;41888;44.696;10.522;2024-01-30T01:44:49;41.58;;;19.65;;
56005;SDS011;41888;44.696;10.522;2024-01-30T01:47:15;36.47;;;19.08;;
56005;SDS011;41888;44.696;10.522;2024-01-30T01:49:42;40.40;;;20.52;;
56005;SDS011;41888;44.696;10.522;2024-01-30T01:52:08;42.95;;;21.48;;
56005;SDS011;41888;44.696;10.522;2024-01-30T01:54:34;43.20;;;22.35;;
56005;SDS011;41888;44.696;10.522;2024-01-30T01:57:01;44.03;;;23.50;;
56005;SDS011;41888;44.696;10.522;2024-01-30T01:59:28;48.83;;;24.42;;
56005;SDS011;41888;44.696;10.522;2024-01-30T02:01:54;43.03;;;21.08;;
56005;SDS011;41888;44.696;10.522;2024-01-30T02:04:21;38.80;;;23.08;;
56005;SDS011;41888;44.696;10.522;2024-01-30T02:06:47;42.88;;;21.55;;
56005;SDS011;41888;44.696;10.522;2024-01-30T02:09:14;39.53;;;21.50;;
56005;SDS011;41888;44.696;10.522;2024-01-30T02:11:41;42.10;;;21.45;;
56005;SDS011;41888;44.696;10.522;2024-01-30T02:14:07;43.78;;;22.17;;
56005;SDS011;41888;44.696;10.522;2024-01-30T02:16:33;31.45;;;17.60;;
56005;SDS011;41888;44.696;10.522;2024-01-30T02:19:00;30.25;;;17.75;;
56005;SDS011;41888;44.696;10.522;2024-01-30T02:21:26;35.55;;;19.67;;
56005;SDS011;41888;44.696;10.522;2024-01-30T02:23:52;36.72;;;17.35;;
56005;SDS011;41888;44.696;10.522;2024-01-30T02:26:21;35.38;;;18.25;;
56005;SDS011;41888;44.696;10.522;2024-01-30T02:28:47;36.20;;;18.77;;
56005;SDS011;41888;44.696;10.522;2024-01-30T02:31:13;39.97;;;19.83;;
56005;SDS011;41888;44.696;10.522;2024-01-30T02:33:39;34.40;;;18.60;;
56005;SDS011;41888;44.696;10.522;2024-01-30T02:36:06;42.40;;;19.25;;
56005;SDS011;41888;44.696;10.522;2024-01-30T02:38:32;53.72;;;21.65;;
56005;SDS011;41888;44.696;10.522;2024-01-30T02:40:58;48.03;;;20.58;;
56005;SDS011;41888;44.696;10.522;2024-01-30T02:43:24;42.30;;;22.17;;
56005;SDS011;41888;44.696;10.522;2024-01-30T02:45:50;42.80;;;22.20;;
56005;SDS011;41888;44.696;10.522;2024-01-30T02:48:16;48.20;;;23.10;;
56005;SDS011;41888;44.696;10.522;2024-01-30T02:50:43;38.05;;;20.13;;
56005;SDS011;41888;44.696;10.522;2024-01-30T02:53:09;45.80;;;20.38;;
56005;SDS011;41888;44.696;10.522;2024-01-30T02:55:35;45.42;;;21.50;;
56005;SDS011;41888;44.696;10.522;2024-01-30T02:58:01;44.97;;;21.52;;
56005;SDS011;41888;44.696;10.522;2024-01-30T03:00:28;43.47;;;22.85;;
56005;SDS011;41888;44.696;10.522;2024-01-30T03:02:54;35.75;;;21.45;;
56005;SDS011;41888;44.696;10.522;2024-01-30T03:05:20;47.15;;;21.42;;
56005;SDS011;41888;44.696;10.522;2024-01-30T03:07:46;34.13;;;21.08;;
56005;SDS011;41888;44.696;10.522;2024-01-30T03:10:13;44.17;;;21.23;;
56005;SDS011;41888;44.696;10.522;2024-01-30T03:12:39;43.35;;;20.75;;
56005;SDS011;41888;44.696;10.522;2024-01-30T03:15:05;36.47;;;17.95;;
56005;SDS011;41888;44.696;10.522;2024-01-30T03:17:32;40.25;;;18.88;;
56005;SDS011;41888;44.696;10.522;2024-01-30T03:19:58;37.78;;;17.83;;
56005;SDS011;41888;44.696;10.522;2024-01-30T03:22:24;41.20;;;17.63;;
56005;SDS011;41888;44.696;10.522;2024-01-30T03:24:50;36.25;;;16.55;;
56005;SDS011;41888;44.696;10.522;2024-01-30T03:27:16;32.45;;;17.52;;
56005;SDS011;41888;44.696;10.522;2024-01-30T03:29:42;31.73;;;16.35;;
56005;SDS011;41888;44.696;10.522;2024-01-30T03:32:09;34.17;;;17.52;;
56005;SDS011;41888;44.696;10.522;2024-01-30T03:34:35;35.13;;;17.42;;
56005;SDS011;41888;44.696;10.522;2024-01-30T03:37:01;31.67;;;16.15;;
56005;SDS011;41888;44.696;10.522;2024-01-30T03:39:27;36.45;;;16.77;;
56005;SDS011;41888;44.696;10.522;2024-01-30T03:41:54;28.83;;;15.60;;
56005;SDS011;41888;44.696;10.522;2024-01-30T03:44:20;32.28;;;16.00;;
56005;SDS011;41888;44.696;10.522;2024-01-30T03:46:46;32.65;;;15.85;;
56005;SDS011;41888;44.696;10.522;2024-01-30T03:49:12;30.17;;;16.25;;
56005;SDS011;41888;44.696;10.522;2024-01-30T03:51:38;34.95;;;14.80;;
56005;SDS011;41888;44.696;10.522;2024-01-30T03:54:04;32.22;;;14.85;;
56005;SDS011;41888;44.696;10.522;2024-01-30T03:56:32;32.53;;;16.75;;
56005;SDS011;41888;44.696;10.522;2024-01-30T03:58:58;32.40;;;16.27;;
56005;SDS011;41888;44.696;10.522;2024-01-30T04:01:25;32.83;;;17.17;;
56005;SDS011;41888;44.696;10.522;2024-01-30T04:03:51;33.22;;;16.23;;
56005;SDS011;41888;44.696;10.522;2024-01-30T04:06:18;37.47;;;16.13;;
56005;SDS011;41888;44.696;10.522;2024-01-30T04:08:44;28.00;;;14.60;;
56005;SDS011;41888;44.696;10.522;2024-01-30T04:11:10;35.60;;;16.08;;
56005;SDS011;41888;44.696;10.522;2024-01-30T04:13:36;24.13;;;14.57;;
56005;SDS011;41888;44.696;10.522;2024-01-30T04:16:03;34.65;;;17.40;;
56005;SDS011;41888;44.696;10.522;2024-01-30T04:18:29;36.33;;;18.55;;
56005;SDS011;41888;44.696;10.522;2024-01-30T04:20:55;31.25;;;16.67;;
56005;SDS011;41888;44.696;10.522;2024-01-30T04:23:22;32.88;;;15.90;;
56005;SDS011;41888;44.696;10.522;2024-01-30T04:25:48;29.95;;;15.27;;
56005;SDS011;41888;44.696;10.522;2024-01-30T04:28:14;26.60;;;13.70;;
56005;SDS011;41888;44.696;10.522;2024-01-30T04:30:40;36.72;;;17.15;;
56005;SDS011;41888;44.696;10.522;2024-01-30T04:33:07;31.42;;;15.65;;
56005;SDS011;41888;44.696;10.522;2024-01-30T04:35:33;29.23;;;14.00;;
56005;SDS011;41888;44.696;10.522;2024-01-30T04:37:59;36.90;;;16.42;;
56005;SDS011;41888;44.696;10.522;2024-01-30T04:40:25;31.05;;;14.82;;
56005;SDS011;41888;44.696;10.522;2024-01-30T04:42:51;29.20;;;14.88;;
56005;SDS011;41888;44.696;10.522;2024-01-30T04:45:18;32.03;;;15.95;;
56005;SDS011;41888;44.696;10.522;2024-01-30T04:47:44;30.45;;;14.68;;
56005;SDS011;41888;44.696;10.522;2024-01-30T04:50:11;29.02;;;15.65;;
56005;SDS011;41888;44.696;10.522;2024-01-30T04:52:37;32.00;;;14.10;;
56005;SDS011;41888;44.696;10.522;2024-01-30T04:55:03;24.77;;;12.93;;
56005;SDS011;41888;44.696;10.522;2024-01-30T04:57:30;25.77;;;14.20;;
56005;SDS011;41888;44.696;10.522;2024-01-30T04:59:58;35.08;;;14.10;;
56005;SDS011;41888;44.696;10.522;2024-01-30T05:02:24;28.90;;;12.35;;
56005;SDS011;41888;44.696;10.522;2024-01-30T05:04:50;33.20;;;14.55;;
56005;SDS011;41888;44.696;10.522;2024-01-30T05:07:17;25.98;;;12.50;;
56005;SDS011;41888;44.696;10.522;2024-01-30T05:09:43;31.33;;;13.60;;
56005;SDS011;41888;44.696;10.522;2024-01-30T05:12:09;26.77;;;13.05;;
56005;SDS011;41888;44.696;10.522;2024-01-30T05:14:35;31.25;;;14.52;;
56005;SDS011;41888;44.696;10.522;2024-01-30T05:17:02;26.00;;;13.80;;
56005;SDS011;41888;44.696;10.522;2024-01-30T05:19:28;26.17;;;14.00;;
56005;SDS011;41888;44.696;10.522;2024-01-30T05:21:54;26.25;;;12.75;;
56005;SDS011;41888;44.696;10.522;2024-01-30T05:24:21;29.13;;;14.13;;
56005;SDS011;41888;44.696;10.522;2024-01-30T05:26:47;31.42;;;15.40;;
56005;SDS011;41888;44.696;10.522;2024-01-30T05:29:13;25.80;;;13.18;;
56005;SDS011;41888;44.696;10.522;2024-01-30T05:31:39;33.00;;;16.02;;
56005;SDS011;41888;44.696;10.522;2024-01-30T05:34:05;32.38;;;16.80;;
56005;SDS011;41888;44.696;10.522;2024-01-30T05:36:31;29.17;;;16.00;;
56005;SDS011;41888;44.696;10.522;2024-01-30T05:38:58;36.38;;;17.65;;
56005;SDS011;41888;44.696;10.522;2024-01-30T05:41:24;38.83;;;18.27;;
56005;SDS011;41888;44.696;10.522;2024-01-30T05:43:50;37.20;;;16.85;;
56005;SDS011;41888;44.696;10.522;2024-01-30T05:46:19;33.22;;;18.33;;
56005;SDS011;41888;44.696;10.522;2024-01-30T05:48:45;33.65;;;19.05;;
56005;SDS011;41888;44.696;10.522;2024-01-30T05:51:12;42.33;;;20.77;;
56005;SDS011;41888;44.696;10.522;2024-01-30T05:53:38;47.00;;;21.63;;
56005;SDS011;41888;44.696;10.522;2024-01-30T05:56:04;45.88;;;20.75;;
56005;SDS011;41888;44.696;10.522;2024-01-30T05:58:31;43.60;;;22.15;;
56005;SDS011;41888;44.696;10.522;2024-01-30T06:00:57;38.25;;;19.70;;
56005;SDS011;41888;44.696;10.522;2024-01-30T06:03:23;39.17;;;21.52;;
56005;SDS011;41888;44.696;10.522;2024-01-30T06:05:50;43.05;;;21.17;;
56005;SDS011;41888;44.696;10.522;2024-01-30T06:08:16;43.75;;;24.42;;
56005;SDS011;41888;44.696;10.522;2024-01-30T06:10:43;48.15;;;23.85;;
56005;SDS011;41888;44.696;10.522;2024-01-30T06:13:09;40.40;;;23.35;;
56005;SDS011;41888;44.696;10.522;2024-01-30T06:15:35;52.60;;;23.83;;
56005;SDS011;41888;44.696;10.522;2024-01-30T06:18:01;36.13;;;19.52;;
56005;SDS011;41888;44.696;10.522;2024-01-30T06:20:27;39.17;;;21.67;;
56005;SDS011;41888;44.696;10.522;2024-01-30T06:22:54;37.75;;;21.02;;
56005;SDS011;41888;44.696;10.522;2024-01-30T06:25:20;39.35;;;19.13;;
56005;SDS011;41888;44.696;10.522;2024-01-30T06:27:46;35.00;;;19.52;;
56005;SDS011;41888;44.696;10.522;2024-01-30T06:30:12;42.05;;;20.58;;
56005;SDS011;41888;44.696;10.522;2024-01-30T06:32:39;32.40;;;18.95;;
56005;SDS011;41888;44.696;10.522;2024-01-30T06:35:05;35.92;;;16.35;;
56005;SDS011;41888;44.696;10.522;2024-01-30T06:37:32;35.17;;;18.05;;
56005;SDS011;41888;44.696;10.522;2024-01-30T06:39:58;66.35;;;32.35;;
56005;SDS011;41888;44.696;10.522;2024-01-30T06:42:24;59.97;;;27.98;;
56005;SDS011;41888;44.696;10.522;2024-01-30T06:44:50;41.67;;;19.63;;
56005;SDS011;41888;44.696;10.522;2024-01-30T06:47:16;34.80;;;17.67;;
56005;SDS011;41888;44.696;10.522;2024-01-30T06:49:42;35.97;;;17.98;;
56005;SDS011;41888;44.696;10.522;2024-01-30T06:52:10;47.13;;;17.73;;
56005;SDS011;41888;44.696;10.522;2024-01-30T06:54:36;34.25;;;18.40;;
56005;SDS011;41888;44.696;10.522;2024-01-30T06:57:02;29.02;;;15.80;;
56005;SDS011;41888;44.696;10.522;2024-01-30T06:59:29;34.88;;;17.25;;
56005;SDS011;41888;44.696;10.522;2024-01-30T07:01:55;32.17;;;17.42;;
56005;SDS011;41888;44.696;10.522;2024-01-30T07:04:21;39.17;;;17.58;;
56005;SDS011;41888;44.696;10.522;2024-01-30T07:06:47;37.70;;;17.77;;
56005;SDS011;41888;44.696;10.522;2024-01-30T07:09:13;41.53;;;16.85;;
56005;SDS011;41888;44.696;10.522;2024-01-30T07:11:40;32.25;;;15.50;;
56005;SDS011;41888;44.696;10.522;2024-01-30T07:14:06;34.33;;;15.63;;
56005;SDS011;41888;44.696;10.522;2024-01-30T07:16:32;26.58;;;13.50;;
56005;SDS011;41888;44.696;10.522;2024-01-30T07:18:59;29.48;;;14.95;;
56005;SDS011;41888;44.696;10.522;2024-01-30T07:21:25;24.83;;;13.73;;
56005;SDS011;41888;44.696;10.522;2024-01-30T07:23:56;26.92;;;13.95;;
56005;SDS011;41888;44.696;10.522;2024-01-30T07:26:23;23.48;;;12.48;;
56005;SDS011;41888;44.696;10.522;2024-01-30T07:28:49;31.45;;;13.80;;
56005;SDS011;41888;44.696;10.522;2024-01-30T07:31:16;26.25;;;13.80;;
56005;SDS011;41888;44.696;10.522;2024-01-30T07:33:42;26.83;;;12.52;;
56005;SDS011;41888;44.696;10.522;2024-01-30T07:36:08;29.42;;;14.02;;
56005;SDS011;41888;44.696;10.522;2024-01-30T07:38:35;26.92;;;13.27;;
56005;SDS011;41888;44.696;10.522;2024-01-30T07:41:01;29.52;;;15.48;;
56005;SDS011;41888;44.696;10.522;2024-01-30T07:43:27;33.22;;;16.08;;
56005;SDS011;41888;44.696;10.522;2024-01-30T07:45:54;24.67;;;14.35;;
56005;SDS011;41888;44.696;10.522;2024-01-30T07:48:20;30.45;;;15.25;;
56005;SDS011;41888;44.696;10.522;2024-01-30T07:50:46;27.95;;;14.65;;
56005;SDS011;41888;44.696;10.522;2024-01-30T07:53:13;28.10;;;14.93;;
56005;SDS011;41888;44.696;10.522;2024-01-30T07:55:39;27.67;;;15.93;;
56005;SDS011;41888;44.696;10.522;2024-01-30T07:58:06;28.67;;;15.55;;
56005;SDS011;41888;44.696;10.522;2024-01-30T08:00:32;24.20;;;14.00;;
56005;SDS011;41888;44.696;10.522;2024-01-30T08:02:58;28.35;;;15.70;;
56005;SDS011;41888;44.696;10.522;2024-01-30T08:05:25;27.85;;;14.73;;
56005;SDS011;41888;44.696;10.522;2024-01-30T08:07:51;34.20;;;16.02;;
56005;SDS011;41888;44.696;10.522;2024-01-30T08:10:17;31.23;;;16.08;;
56005;SDS011;41888;44.696;10.522;2024-01-30T08:12:44;23.15;;;14.27;;
56005;SDS011;41888;44.696;10.522;2024-01-30T08:15:11;26.85;;;14.05;;
56005;SDS011;41888;44.696;10.522;2024-01-30T08:17:38;31.27;;;15.55;;
56005;SDS011;41888;44.696;10.522;2024-01-30T08:20:04;27.63;;;15.00;;
56005;SDS011;41888;44.696;10.522;2024-01-30T08:22:33;24.80;;;14.85;;
56005;SDS011;41888;44.696;10.522;2024-01-30T08:24:59;25.98;;;15.45;;
56005;SDS011;41888;44.696;10.522;2024-01-30T08:27:25;34.70;;;15.30;;
56005;SDS011;41888;44.696;10.522;2024-01-30T08:29:51;29.20;;;15.25;;
56005;SDS011;41888;44.696;10.522;2024-01-30T08:32:18;28.67;;;15.18;;
56005;SDS011;41888;44.696;10.522;2024-01-30T08:34:44;24.48;;;13.32;;
56005;SDS011;41888;44.696;10.522;2024-01-30T08:37:10;25.83;;;14.18;;
56005;SDS011;41888;44.696;10.522;2024-01-30T08:39:37;26.60;;;13.73;;
56005;SDS011;41888;44.696;10.522;2024-01-30T08:42:03;25.88;;;13.73;;
56005;SDS011;41888;44.696;10.522;2024-01-30T08:44:30;21.83;;;14.05;;
56005;SDS011;41888;44.696;10.522;2024-01-30T08:46:56;27.67;;;13.65;;
56005;SDS011;41888;44.696;10.522;2024-01-30T08:49:22;24.48;;;14.32;;
56005;SDS011;41888;44.696;10.522;2024-01-30T08:51:48;26.08;;;14.38;;
56005;SDS011;41888;44.696;10.522;2024-01-30T08:54:15;33.60;;;13.93;;
56005;SDS011;41888;44.696;10.522;2024-01-30T08:56:42;28.17;;;13.50;;
56005;SDS011;41888;44.696;10.522;2024-01-30T08:59:09;24.95;;;14.45;;
56005;SDS011;41888;44.696;10.522;2024-01-30T09:01:35;30.52;;;14.80;;
56005;SDS011;41888;44.696;10.522;2024-01-30T09:04:01;29.48;;;15.73;;
56005;SDS011;41888;44.696;10.522;2024-01-30T09:06:27;28.67;;;14.82;;
56005;SDS011;41888;44.696;10.522;2024-01-30T09:08:54;25.52;;;14.75;;
56005;SDS011;41888;44.696;10.522;2024-01-30T09:11:20;25.77;;;14.68;;
56005;SDS011;41888;44.696;10.522;2024-01-30T09:13:46;22.67;;;14.10;;
56005;SDS011;41888;44.696;10.522;2024-01-30T09:16:12;37.67;;;16.17;;
56005;SDS011;41888;44.696;10.522;2024-01-30T09:18:40;43.78;;;17.10;;
56005;SDS011;41888;44.696;10.522;2024-01-30T09:21:07;28.27;;;16.33;;
56005;SDS011;41888;44.696;10.522;2024-01-30T09:23:33;25.13;;;13.82;;
56005;SDS011;41888;44.696;10.522;2024-01-30T09:26:00;22.05;;;14.68;;
56005;SDS011;41888;44.696;10.522;2024-01-30T09:28:26;24.60;;;14.63;;
56005;SDS011;41888;44.696;10.522;2024-01-30T09:30:52;20.15;;;15.15;;
56005;SDS011;41888;44.696;10.522;2024-01-30T09:33:18;24.95;;;17.05;;
56005;SDS011;41888;44.696;10.522;2024-01-30T09:35:45;24.15;;;15.02;;
56005;SDS011;41888;44.696;10.522;2024-01-30T09:38:11;22.08;;;14.88;;
56005;SDS011;41888;44.696;10.522;2024-01-30T09:40:37;21.67;;;14.93;;
56005;SDS011;41888;44.696;10.522;2024-01-30T09:43:03;25.17;;;15.88;;
56005;SDS011;41888;44.696;10.522;2024-01-30T09:45:30;28.48;;;17.63;;
56005;SDS011;41888;44.696;10.522;2024-01-30T09:47:59;24.30;;;16.90;;
56005;SDS011;41888;44.696;10.522;2024-01-30T09:50:25;22.70;;;15.60;;
56005;SDS011;41888;44.696;10.522;2024-01-30T09:52:52;22.08;;;15.23;;
56005;SDS011;41888;44.696;10.522;2024-01-30T09:55:21;22.08;;;16.08;;
56005;SDS011;41888;44.696;10.522;2024-01-30T09:57:48;22.95;;;15.43;;
56005;SDS011;41888;44.696;10.522;2024-01-30T10:00:15;21.33;;;14.50;;
56005;SDS011;41888;44.696;10.522;2024-01-30T10:02:41;25.95;;;15.77;;
56005;SDS011;41888;44.696;10.522;2024-01-30T10:05:07;23.77;;;14.52;;
56005;SDS011;41888;44.696;10.522;2024-01-30T10:07:34;21.77;;;14.23;;
56005;SDS011;41888;44.696;10.522;2024-01-30T10:10:00;21.30;;;15.05;;
56005;SDS011;41888;44.696;10.522;2024-01-30T10:12:27;24.40;;;13.07;;
56005;SDS011;41888;44.696;10.522;2024-01-30T10:14:55;20.42;;;13.50;;
56005;SDS011;41888;44.696;10.522;2024-01-30T10:17:24;20.02;;;14.10;;
56005;SDS011;41888;44.696;10.522;2024-01-30T10:19:50;17.63;;;13.38;;
56005;SDS011;41888;44.696;10.522;2024-01-30T10:22:17;17.95;;;13.10;;
56005;SDS011;41888;44.696;10.522;2024-01-30T10:24:44;17.48;;;13.40;;
56005;SDS011;41888;44.696;10.522;2024-01-30T10:27:10;18.98;;;12.70;;
56005;SDS011;41888;44.696;10.522;2024-01-30T10:29:37;17.70;;;13.07;;
56005;SDS011;41888;44.696;10.522;2024-01-30T10:32:04;18.17;;;11.75;;
56005;SDS011;41888;44.696;10.522;2024-01-30T10:34:31;19.85;;;13.65;;
56005;SDS011;41888;44.696;10.522;2024-01-30T10:39:40;19.00;;;13.10;;
56005;SDS011;41888;44.696;10.522;2024-01-30T10:42:12;16.92;;;12.32;;
56005;SDS011;41888;44.696;10.522;2024-01-30T10:44:55;21.27;;;13.45;;
56005;SDS011;41888;44.696;10.522;2024-01-30T10:47:31;18.88;;;13.40;;
56005;SDS011;41888;44.696;10.522;2024-01-30T10:50:04;18.73;;;13.88;;
56005;SDS011;41888;44.696;10.522;2024-01-30T10:52:31;21.20;;;14.02;;
56005;SDS011;41888;44.696;10.522;2024-01-30T10:54:58;20.83;;;14.20;;
56005;SDS011;41888;44.696;10.522;2024-01-30T10:57:26;22.70;;;14.38;;
56005;SDS011;41888;44.696;10.522;2024-01-30T10:59:56;18.77;;;13.88;;
56005;SDS011;41888;44.696;10.522;2024-01-30T11:02:24;20.23;;;14.20;;
56005;SDS011;41888;44.696;10.522;2024-01-30T11:04:55;23.85;;;14.57;;
56005;SDS011;41888;44.696;10.522;2024-01-30T11:07:28;22.27;;;14.70;;
56005;SDS011;41888;44.696;10.522;2024-01-30T11:12:26;22.05;;;14.88;;
56005;SDS011;41888;44.696;10.522;2024-01-30T11:15:05;24.60;;;16.58;;
56005;SDS011;41888;44.696;10.522;2024-01-30T11:20:29;24.27;;;15.40;;
56005;SDS011;41888;44.696;10.522;2024-01-30T11:22:56;25.85;;;15.77;;
56005;SDS011;41888;44.696;10.522;2024-01-30T11:25:24;21.70;;;15.15;;
56005;SDS011;41888;44.696;10.522;2024-01-30T11:27:54;26.17;;;17.73;;
56005;SDS011;41888;44.696;10.522;2024-01-30T11:30:24;25.40;;;17.42;;
56005;SDS011;41888;44.696;10.522;2024-01-30T11:35:40;25.20;;;16.42;;
56005;SDS011;41888;44.696;10.522;2024-01-30T11:38:08;26.75;;;16.65;;
56005;SDS011;41888;44.696;10.522;2024-01-30T11:40:38;23.10;;;17.15;;
56005;SDS011;41888;44.696;10.522;2024-01-30T11:43:06;27.63;;;16.73;;
56005;SDS011;41888;44.696;10.522;2024-01-30T11:45:34;24.27;;;15.63;;
56005;SDS011;41888;44.696;10.522;2024-01-30T11:48:01;26.65;;;16.40;;
56005;SDS011;41888;44.696;10.522;2024-01-30T11:50:31;25.95;;;16.77;;
56005;SDS011;41888;44.696;10.522;2024-01-30T11:52:58;25.33;;;16.35;;
56005;SDS011;41888;44.696;10.522;2024-01-30T11:55:25;24.92;;;16.15;;
56005;SDS011;41888;44.696;10.522;2024-01-30T11:57:56;29.10;;;17.48;;
56005;SDS011;41888;44.696;10.522;2024-01-30T12:00:23;25.40;;;16.50;;
56005;SDS011;41888;44.696;10.522;2024-01-30T12:02:51;24.02;;;16.58;;
56005;SDS011;41888;44.696;10.522;2024-01-30T12:05:21;23.10;;;15.85;;
56005;SDS011;41888;44.696;10.522;2024-01-30T12:07:51;26.63;;;17.45;;
56005;SDS011;41888;44.696;10.522;2024-01-30T12:10:18;20.67;;;14.80;;
56005;SDS011;41888;44.696;10.522;2024-01-30T12:12:49;22.88;;;15.90;;
56005;SDS011;41888;44.696;10.522;2024-01-30T12:15:16;21.58;;;15.48;;
56005;SDS011;41888;44.696;10.522;2024-01-30T12:17:43;22.80;;;16.17;;
56005;SDS011;41888;44.696;10.522;2024-01-30T12:20:10;23.63;;;15.75;;
56005;SDS011;41888;44.696;10.522;2024-01-30T12:22:39;26.02;;;17.33;;
56005;SDS011;41888;44.696;10.522;2024-01-30T12:25:08;23.75;;;16.60;;
56005;SDS011;41888;44.696;10.522;2024-01-30T12:27:35;29.48;;;16.85;;
56005;SDS011;41888;44.696;10.522;2024-01-30T12:32:38;26.60;;;18.33;;
56005;SDS011;41888;44.696;10.522;2024-01-30T12:35:12;30.25;;;19.63;;
56005;SDS011;41888;44.696;10.522;2024-01-30T12:37:39;27.70;;;18.58;;
56005;SDS011;41888;44.696;10.522;2024-01-30T12:40:09;28.25;;;18.60;;
56005;SDS011;41888;44.696;10.522;2024-01-30T12:42:38;26.60;;;17.80;;
56005;SDS011;41888;44.696;10.522;2024-01-30T12:45:04;27.88;;;18.90;;
56005;SDS011;41888;44.696;10.522;2024-01-30T12:47:31;27.90;;;18.92;;
56005;SDS011;41888;44.696;10.522;2024-01-30T12:49:57;29.88;;;19.30;;
56005;SDS011;41888;44.696;10.522;2024-01-30T12:52:24;31.15;;;20.17;;
56005;SDS011;41888;44.696;10.522;2024-01-30T12:54:50;30.00;;;19.45;;
56005;SDS011;41888;44.696;10.522;2024-01-30T12:57:17;32.85;;;20.02;;
56005;SDS011;41888;44.696;10.522;2024-01-30T12:59:44;32.30;;;21.00;;
56005;SDS011;41888;44.696;10.522;2024-01-30T13:02:11;32.47;;;20.40;;
56005;SDS011;41888;44.696;10.522;2024-01-30T13:04:38;33.38;;;21.88;;
56005;SDS011;41888;44.696;10.522;2024-01-30T13:07:05;30.88;;;20.75;;
56005;SDS011;41888;44.696;10.522;2024-01-30T13:09:31;35.10;;;20.58;;
56005;SDS011;41888;44.696;10.522;2024-01-30T13:11:58;35.38;;;20.20;;
56005;SDS011;41888;44.696;10.522;2024-01-30T13:14:27;34.35;;;20.02;;
56005;SDS011;41888;44.696;10.522;2024-01-30T13:16:53;38.15;;;20.42;;
56005;SDS011;41888;44.696;10.522;2024-01-30T13:19:20;40.67;;;24.13;;
56005;SDS011;41888;44.696;10.522;2024-01-30T13:21:46;37.92;;;21.92;;
56005;SDS011;41888;44.696;10.522;2024-01-30T13:24:12;41.35;;;23.25;;
56005;SDS011;41888;44.696;10.522;2024-01-30T13:26:39;38.72;;;23.08;;
56005;SDS011;41888;44.696;10.522;2024-01-30T13:29:07;42.35;;;22.80;;
56005;SDS011;41888;44.696;10.522;2024-01-30T13:31:33;42.85;;;22.70;;
56005;SDS011;41888;44.696;10.522;2024-01-30T13:33:59;42.45;;;22.92;;
56005;SDS011;41888;44.696;10.522;2024-01-30T13:36:26;38.65;;;22.45;;
56005;SDS011;41888;44.696;10.522;2024-01-30T13:38:52;41.70;;;21.40;;
56005;SDS011;41888;44.696;10.522;2024-01-30T13:41:18;39.88;;;22.75;;
56005;SDS011;41888;44.696;10.522;2024-01-30T13:43:45;43.40;;;23.15;;
56005;SDS011;41888;44.696;10.522;2024-01-30T13:46:12;40.35;;;22.77;;
56005;SDS011;41888;44.696;10.522;2024-01-30T13:48:38;39.10;;;21.67;;
56005;SDS011;41888;44.696;10.522;2024-01-30T13:51:04;39.65;;;22.67;;
56005;SDS011;41888;44.696;10.522;2024-01-30T13:53:30;39.65;;;22.30;;
56005;SDS011;41888;44.696;10.522;2024-01-30T13:55:57;37.75;;;22.42;;
56005;SDS011;41888;44.696;10.522;2024-01-30T13:58:24;38.20;;;22.38;;
56005;SDS011;41888;44.696;10.522;2024-01-30T14:00:50;44.60;;;23.73;;
56005;SDS011;41888;44.696;10.522;2024-01-30T14:03:16;43.60;;;22.83;;
56005;SDS011;41888;44.696;10.522;2024-01-30T14:05:42;40.42;;;23.13;;
56005;SDS011;41888;44.696;10.522;2024-01-30T14:08:09;43.25;;;22.83;;
56005;SDS011;41888;44.696;10.522;2024-01-30T14:10:35;45.90;;;25.02;;
56005;SDS011;41888;44.696;10.522;2024-01-30T14:13:01;47.70;;;25.42;;
56005;SDS011;41888;44.696;10.522;2024-01-30T14:15:28;41.03;;;22.35;;
56005;SDS011;41888;44.696;10.522;2024-01-30T14:17:54;40.28;;;23.75;;
56005;SDS011;41888;44.696;10.522;2024-01-30T14:20:20;42.03;;;22.85;;